createdAt,value
2022-12-18T00:02:04.574Z,-4.90
2022-12-18T00:04:33.151Z,-4.93
2022-12-18T00:07:01.304Z,-5.07
2022-12-18T00:09:31.179Z,-5.07
2022-12-18T00:14:43.858Z,-5.14
2022-12-18T00:17:11.945Z,-5.15
2022-12-18T00:19:39.940Z,-5.20
2022-12-18T00:22:08.176Z,-5.29
2022-12-18T00:24:36.614Z,-5.22
2022-12-18T00:27:04.947Z,-5.13
2022-12-18T00:29:34.515Z,-5.28
2022-12-18T00:32:02.830Z,-5.32
2022-12-18T00:34:31.024Z,-5.39
2022-12-18T00:36:59.043Z,-5.47
2022-12-18T00:39:27.268Z,-5.54
2022-12-18T00:42:12.530Z,-5.56
2022-12-18T00:44:42.726Z,-5.56
2022-12-18T00:47:10.739Z,-5.57
2022-12-18T00:49:38.727Z,-5.54
2022-12-18T00:52:06.967Z,-5.60
2022-12-18T00:54:35.014Z,-5.60
2022-12-18T00:57:03.700Z,-5.60
2022-12-18T00:59:32.131Z,-5.65
2022-12-18T01:02:01.677Z,-5.62
2022-12-18T01:04:29.847Z,-5.65
2022-12-18T01:07:00.519Z,-5.68
2022-12-18T01:09:28.903Z,-5.77
2022-12-18T01:11:59.964Z,-5.68
2022-12-18T01:14:28.043Z,-5.70
2022-12-18T01:16:56.121Z,-5.72
2022-12-18T01:19:25.617Z,-5.84
2022-12-18T01:21:53.690Z,-5.88
2022-12-18T01:24:21.973Z,-5.85
2022-12-18T01:26:49.998Z,-5.88
2022-12-18T01:29:18.025Z,-6.02
2022-12-18T01:31:46.237Z,-6.06
2022-12-18T01:34:14.335Z,-6.18
2022-12-18T01:36:43.777Z,-6.12
2022-12-18T01:39:14.486Z,-6.04
2022-12-18T01:42:00.801Z,-6.01
2022-12-18T01:45:02.038Z,-6.15
2022-12-18T01:47:35.561Z,-6.22
2022-12-18T01:50:06.650Z,-6.24
2022-12-18T01:52:37.989Z,-6.15
2022-12-18T01:55:08.919Z,-6.19
2022-12-18T01:57:37.502Z,-6.21
2022-12-18T02:00:10.003Z,-6.20
2022-12-18T02:02:38.242Z,-6.25
2022-12-18T02:05:08.082Z,-6.31
2022-12-18T02:07:47.096Z,-6.22
2022-12-18T02:10:21.965Z,-6.31
2022-12-18T02:12:57.343Z,-6.29
2022-12-18T02:15:34.297Z,-6.30
2022-12-18T02:18:07.931Z,-6.33
2022-12-18T02:20:42.100Z,-6.23
2022-12-18T02:23:26.530Z,-6.29
2022-12-18T02:26:09.733Z,-6.32
2022-12-18T02:28:44.293Z,-6.39
2022-12-18T02:31:16.438Z,-6.47
2022-12-18T02:33:46.318Z,-6.48
2022-12-18T02:36:16.867Z,-6.43
2022-12-18T02:38:46.770Z,-6.49
2022-12-18T02:41:18.753Z,-6.50
2022-12-18T02:43:52.675Z,-6.52
2022-12-18T02:46:39.853Z,-6.51
2022-12-18T02:49:18.900Z,-6.51
2022-12-18T02:51:54.931Z,-6.60
2022-12-18T02:54:44.764Z,-6.59
2022-12-18T02:57:19.353Z,-6.67
2022-12-18T02:59:55.503Z,-6.67
2022-12-18T03:02:29.173Z,-6.71
2022-12-18T03:05:03.200Z,-6.69
2022-12-18T03:07:39.200Z,-6.73
2022-12-18T03:10:14.046Z,-6.69
2022-12-18T03:12:48.867Z,-6.74
2022-12-18T03:15:22.818Z,-6.80
2022-12-18T03:17:57.323Z,-6.75
2022-12-18T03:20:31.393Z,-6.85
2022-12-18T03:23:06.303Z,-6.89
2022-12-18T03:25:36.908Z,-6.83
2022-12-18T03:28:10.507Z,-6.87
2022-12-18T03:30:42.631Z,-6.85
2022-12-18T03:33:12.785Z,-6.87
2022-12-18T03:35:43.910Z,-6.88
2022-12-18T03:38:12.869Z,-6.82
2022-12-18T03:40:52.852Z,-6.90
2022-12-18T03:43:33.586Z,-6.90
2022-12-18T03:46:09.329Z,-6.93
2022-12-18T03:48:43.957Z,-7.02
2022-12-18T03:51:17.358Z,-7.08
2022-12-18T03:53:53.766Z,-7.05
2022-12-18T03:56:24.807Z,-6.98
2022-12-18T03:58:55.876Z,-6.93
2022-12-18T04:01:31.528Z,-7.04
2022-12-18T04:04:02.746Z,-7.02
2022-12-18T04:06:31.961Z,-6.99
2022-12-18T04:09:01.163Z,-6.86
2022-12-18T04:11:29.359Z,-6.97
2022-12-18T04:13:59.617Z,-6.98
2022-12-18T04:16:28.628Z,-7.01
2022-12-18T04:18:56.898Z,-7.09
2022-12-18T04:21:24.987Z,-7.03
2022-12-18T04:23:53.186Z,-7.04
2022-12-18T04:26:21.402Z,-7.06
2022-12-18T04:28:49.500Z,-7.04
2022-12-18T04:31:19.002Z,-7.05
2022-12-18T04:33:47.138Z,-7.13
2022-12-18T04:36:15.377Z,-7.11
2022-12-18T04:38:43.351Z,-7.16
2022-12-18T04:41:13.623Z,-7.05
2022-12-18T04:43:41.926Z,-7.10
2022-12-18T04:46:10.983Z,-7.09
2022-12-18T04:48:40.630Z,-7.10
2022-12-18T04:51:09.256Z,-7.06
2022-12-18T04:53:37.709Z,-7.08
2022-12-18T04:56:08.364Z,-7.08
2022-12-18T04:58:36.691Z,-7.09
2022-12-18T05:01:05.369Z,-7.08
2022-12-18T05:03:33.906Z,-7.13
2022-12-18T05:06:03.923Z,-7.14
2022-12-18T05:08:32.397Z,-7.24
2022-12-18T05:11:01.991Z,-7.24
2022-12-18T05:13:30.306Z,-7.23
2022-12-18T05:15:58.649Z,-7.26
2022-12-18T05:18:29.934Z,-7.29
2022-12-18T05:20:58.265Z,-7.28
2022-12-18T05:23:28.756Z,-7.20
2022-12-18T05:25:59.422Z,-7.25
2022-12-18T05:28:30.436Z,-7.21
2022-12-18T05:31:00.102Z,-7.28
2022-12-18T05:33:30.776Z,-7.27
2022-12-18T05:36:00.284Z,-7.31
2022-12-18T05:38:31.521Z,-7.40
2022-12-18T05:41:00.278Z,-7.39
2022-12-18T05:43:29.938Z,-7.39
2022-12-18T05:45:58.607Z,-7.34
2022-12-18T05:48:26.753Z,-7.42
2022-12-18T05:50:54.912Z,-7.46
2022-12-18T05:53:23.263Z,-7.45
2022-12-18T05:55:52.766Z,-7.40
2022-12-18T05:58:20.874Z,-7.49
2022-12-18T06:00:49.227Z,-7.53
2022-12-18T06:03:17.328Z,-7.53
2022-12-18T06:05:47.176Z,-7.45
2022-12-18T06:08:15.754Z,-7.45
2022-12-18T06:10:44.282Z,-7.41
2022-12-18T06:13:13.733Z,-7.39
2022-12-18T06:15:41.776Z,-7.52
2022-12-18T06:18:12.786Z,-7.43
2022-12-18T06:20:42.437Z,-7.42
2022-12-18T06:23:10.803Z,-7.42
2022-12-18T06:25:40.510Z,-7.45
2022-12-18T06:28:08.633Z,-7.46
2022-12-18T06:30:38.066Z,-7.49
2022-12-18T06:33:06.204Z,-7.47
2022-12-18T06:35:34.583Z,-7.51
2022-12-18T06:38:03.595Z,-7.45
2022-12-18T06:40:31.925Z,-7.49
2022-12-18T06:43:00.010Z,-7.44
2022-12-18T06:45:28.601Z,-7.49
2022-12-18T06:48:00.268Z,-7.48
2022-12-18T06:50:28.769Z,-7.52
2022-12-18T06:52:56.932Z,-7.54
2022-12-18T06:55:24.987Z,-7.55
2022-12-18T06:57:53.466Z,-7.55
2022-12-18T07:00:21.586Z,-7.53
2022-12-18T07:02:52.588Z,-7.50
2022-12-18T07:05:22.059Z,-7.50
2022-12-18T07:07:50.239Z,-7.48
2022-12-18T07:10:18.512Z,-7.51
2022-12-18T07:12:49.276Z,-7.51
2022-12-18T07:15:17.714Z,-7.50
2022-12-18T07:17:45.770Z,-7.45
2022-12-18T07:20:13.820Z,-7.43
2022-12-18T07:22:45.512Z,-7.42
2022-12-18T07:25:13.603Z,-7.35
2022-12-18T07:27:41.670Z,-7.35
2022-12-18T07:30:11.938Z,-7.28
2022-12-18T07:32:40.010Z,-7.26
2022-12-18T07:35:08.717Z,-7.25
2022-12-18T07:37:36.749Z,-7.23
2022-12-18T07:40:07.299Z,-7.22
2022-12-18T07:42:35.927Z,-7.18
2022-12-18T07:45:05.145Z,-7.20
2022-12-18T07:47:33.215Z,-7.20
2022-12-18T07:50:01.305Z,-7.18
2022-12-18T07:52:29.379Z,-7.16
2022-12-18T07:54:57.690Z,-7.07
2022-12-18T07:57:49.579Z,-7.01
2022-12-18T08:00:17.330Z,-6.98
2022-12-18T08:02:46.091Z,-6.95
2022-12-18T08:05:14.446Z,-6.91
2022-12-18T08:07:42.536Z,-6.91
2022-12-18T08:10:11.187Z,-6.89
2022-12-18T08:12:40.741Z,-6.87
2022-12-18T08:15:09.922Z,-6.82
2022-12-18T08:17:37.994Z,-6.78
2022-12-18T08:20:06.470Z,-6.75
2022-12-18T08:22:36.393Z,-6.70
2022-12-18T08:25:04.849Z,-6.63
2022-12-18T08:27:33.459Z,-6.55
2022-12-18T08:30:04.334Z,-6.49
2022-12-18T08:32:34.208Z,-6.42
2022-12-18T08:35:02.288Z,-6.35
2022-12-18T08:37:30.400Z,-6.25
2022-12-18T08:39:58.460Z,-6.13
2022-12-18T08:42:44.239Z,-6.03
2022-12-18T08:45:13.908Z,-5.90
2022-12-18T08:47:41.965Z,-5.85
2022-12-18T08:50:12.990Z,-5.74
2022-12-18T08:52:41.123Z,-5.67
2022-12-18T08:55:10.784Z,-5.53
2022-12-18T08:57:39.017Z,-5.44
2022-12-18T09:00:08.639Z,-5.33
2022-12-18T09:02:38.133Z,-5.24
2022-12-18T09:05:07.186Z,-5.20
2022-12-18T09:07:35.396Z,-5.07
2022-12-18T09:10:03.492Z,-5.05
2022-12-18T09:12:31.539Z,-4.94
2022-12-18T09:14:59.730Z,-4.84
2022-12-18T09:17:28.033Z,-4.71
2022-12-18T09:20:00.137Z,-4.59
2022-12-18T09:22:28.368Z,-4.45
2022-12-18T09:24:56.540Z,-4.45
2022-12-18T09:27:24.682Z,-4.21
2022-12-18T09:29:52.754Z,-4.18
2022-12-18T09:32:22.584Z,-4.18
2022-12-18T09:34:50.823Z,-3.99
2022-12-18T09:37:20.281Z,-4.05
2022-12-18T09:39:48.478Z,-4.05
2022-12-18T09:42:22.552Z,-3.85
2022-12-18T09:44:52.953Z,-3.82
2022-12-18T09:47:26.454Z,-3.82
2022-12-18T09:49:58.884Z,-3.70
2022-12-18T09:52:32.696Z,-3.69
2022-12-18T09:55:05.611Z,-3.65
2022-12-18T09:57:35.721Z,-3.47
2022-12-18T10:00:16.575Z,-3.46
2022-12-18T10:02:44.839Z,-3.40
2022-12-18T10:05:16.363Z,-3.37
2022-12-18T10:07:58.659Z,-3.35
2022-12-18T10:10:38.825Z,-3.30
2022-12-18T10:13:23.659Z,-3.30
2022-12-18T10:16:02.445Z,-3.23
2022-12-18T10:18:49.731Z,-3.19
2022-12-18T10:21:21.199Z,-3.11
2022-12-18T10:24:02.546Z,-3.08
2022-12-18T10:26:30.681Z,-3.05
2022-12-18T10:29:05.318Z,-2.95
2022-12-18T10:31:33.845Z,-2.91
2022-12-18T10:34:02.012Z,-2.85
2022-12-18T10:36:30.797Z,-2.81
2022-12-18T10:39:17.099Z,-2.76
2022-12-18T10:41:47.674Z,-2.72
2022-12-18T10:44:20.147Z,-2.63
2022-12-18T10:46:50.155Z,-2.57
2022-12-18T10:49:24.357Z,-2.53
2022-12-18T10:51:53.754Z,-2.48
2022-12-18T10:54:25.960Z,-2.45
2022-12-18T10:56:54.063Z,-2.36
2022-12-18T10:59:22.171Z,-2.28
2022-12-18T11:01:53.120Z,-2.24
2022-12-18T11:04:23.981Z,-2.20
2022-12-18T11:06:58.392Z,-2.15
2022-12-18T11:09:29.349Z,-2.10
2022-12-18T11:12:00.343Z,-2.02
2022-12-18T11:14:31.170Z,-2.01
2022-12-18T11:19:56.620Z,-1.96
2022-12-18T11:22:28.902Z,-1.95
2022-12-18T11:27:55.571Z,-1.81
2022-12-18T11:30:26.553Z,-1.88
2022-12-18T11:33:01.830Z,-1.80
2022-12-18T11:35:40.507Z,-1.76
2022-12-18T11:38:19.593Z,-1.69
2022-12-18T11:40:56.301Z,-1.68
2022-12-18T11:43:30.098Z,-1.64
2022-12-18T11:46:03.784Z,-1.56
2022-12-18T11:48:36.463Z,-1.51
2022-12-18T11:51:07.703Z,-1.52
2022-12-18T11:53:39.162Z,-1.44
2022-12-18T11:56:28.475Z,-1.47
2022-12-18T11:59:07.396Z,-1.45
2022-12-18T12:01:47.757Z,-1.40
2022-12-18T12:04:46.999Z,-1.33
2022-12-18T12:07:25.860Z,-1.30
2022-12-18T12:10:06.231Z,-1.30
2022-12-18T12:12:48.941Z,-1.30
2022-12-18T12:15:28.134Z,-1.21
2022-12-18T12:18:09.660Z,-1.25
2022-12-18T12:20:51.622Z,-1.24
2022-12-18T12:23:31.683Z,-1.21
2022-12-18T12:26:05.086Z,-1.18
2022-12-18T12:28:59.487Z,-1.20
2022-12-18T12:31:41.001Z,-1.08
2022-12-18T12:34:19.236Z,-1.05
2022-12-18T12:37:08.998Z,-1.02
2022-12-18T12:39:40.349Z,-1.02
2022-12-18T12:42:35.208Z,-0.98
2022-12-18T12:45:08.908Z,-0.98
2022-12-18T12:47:43.849Z,-0.94
2022-12-18T12:50:18.745Z,-0.97
2022-12-18T12:52:50.282Z,-0.97
2022-12-18T12:55:22.465Z,-0.93
2022-12-18T12:58:00.171Z,-0.91
2022-12-18T13:00:36.152Z,-0.89
2022-12-18T13:03:17.750Z,-0.92
2022-12-18T13:05:52.110Z,-0.90
2022-12-18T13:08:26.714Z,-0.88
2022-12-18T13:11:19.012Z,-0.86
2022-12-18T13:13:51.855Z,-0.78
2022-12-18T13:16:24.511Z,-0.81
2022-12-18T13:18:55.361Z,-0.74
2022-12-18T13:21:28.232Z,-0.76
2022-12-18T13:23:56.736Z,-0.74
2022-12-18T13:26:35.266Z,-0.78
2022-12-18T13:29:07.450Z,-0.79
2022-12-18T13:32:03.164Z,-0.75
2022-12-18T13:34:33.656Z,-0.78
2022-12-18T13:37:35.741Z,-0.76
2022-12-18T13:40:04.531Z,-0.73
2022-12-18T13:43:00.418Z,-0.73
2022-12-18T13:45:40.974Z,-0.78
2022-12-18T13:48:18.380Z,-0.73
2022-12-18T13:50:54.145Z,-0.70
2022-12-18T13:53:25.764Z,-0.80
2022-12-18T13:55:56.509Z,-0.76
2022-12-18T13:58:24.809Z,-0.70
2022-12-18T14:00:53.096Z,-0.68
2022-12-18T14:03:24.882Z,-0.70
2022-12-18T14:06:02.494Z,-0.66
2022-12-18T14:08:36.142Z,-0.66
2022-12-18T14:11:06.597Z,-0.63
2022-12-18T14:13:39.697Z,-0.55
2022-12-18T14:16:09.062Z,-0.68
2022-12-18T14:18:45.337Z,-0.60
2022-12-18T14:21:23.740Z,-0.59
2022-12-18T14:24:04.727Z,-0.63
2022-12-18T14:26:34.523Z,-0.53
2022-12-18T14:29:19.766Z,-0.51
2022-12-18T14:32:08.433Z,-0.61
2022-12-18T14:34:40.464Z,-0.57
2022-12-18T14:37:12.171Z,-0.63
2022-12-18T14:39:40.261Z,-0.59
2022-12-18T14:42:12.326Z,-0.58
2022-12-18T14:45:05.135Z,-0.64
2022-12-18T14:47:28.422Z,-0.63
2022-12-18T14:49:56.537Z,-0.61
2022-12-18T14:52:34.017Z,-0.66
2022-12-18T14:55:02.044Z,-0.62
2022-12-18T14:57:38.905Z,-0.58
2022-12-18T15:00:08.698Z,-0.57
2022-12-18T15:02:38.471Z,-0.60
2022-12-18T15:05:20.022Z,-0.51
2022-12-18T15:07:51.245Z,-0.62
2022-12-18T15:10:22.147Z,-0.58
2022-12-18T15:12:52.062Z,-0.71
2022-12-18T15:15:48.983Z,-0.67
2022-12-18T15:18:20.620Z,-0.71
2022-12-18T15:20:51.256Z,-0.76
2022-12-18T15:23:26.457Z,-0.70
2022-12-18T15:25:58.587Z,-0.74
2022-12-18T15:28:29.825Z,-0.80
2022-12-18T15:31:07.416Z,-0.77
2022-12-18T15:33:38.649Z,-0.83
2022-12-18T15:36:10.952Z,-0.76
2022-12-18T15:38:40.924Z,-0.79
2022-12-18T15:41:18.865Z,-0.78
2022-12-18T15:43:50.276Z,-0.79
2022-12-18T15:46:20.643Z,-0.74
2022-12-18T15:48:50.351Z,-0.70
2022-12-18T15:51:21.061Z,-0.73
2022-12-18T15:53:52.483Z,-0.76
2022-12-18T15:56:38.578Z,-0.71
2022-12-18T15:59:10.971Z,-0.82
2022-12-18T16:01:42.537Z,-0.80
2022-12-18T16:04:13.848Z,-0.81
2022-12-18T16:07:05.631Z,-0.88
2022-12-18T16:09:31.810Z,-0.87
2022-12-18T16:12:02.729Z,-0.88
2022-12-18T16:14:32.572Z,-0.92
2022-12-18T16:17:03.026Z,-0.90
2022-12-18T16:19:31.217Z,-0.89
2022-12-18T16:22:00.216Z,-0.87
2022-12-18T16:24:30.218Z,-0.90
2022-12-18T16:27:01.256Z,-0.93
2022-12-18T16:29:31.090Z,-0.89
2022-12-18T16:32:02.966Z,-0.84
2022-12-18T16:34:35.625Z,-0.90
2022-12-18T16:37:06.537Z,-0.97
2022-12-18T16:39:35.424Z,-1.00
2022-12-18T16:42:06.949Z,-0.90
2022-12-18T16:44:35.089Z,-0.95
2022-12-18T16:47:04.087Z,-1.02
2022-12-18T16:49:32.310Z,-1.04
2022-12-18T16:52:00.270Z,-1.08
2022-12-18T16:54:31.147Z,-1.06
2022-12-18T16:56:59.286Z,-1.10
2022-12-18T16:59:29.309Z,-1.12
2022-12-18T17:01:58.411Z,-1.12
2022-12-18T17:04:26.692Z,-1.06
2022-12-18T17:06:54.768Z,-1.07
2022-12-18T17:09:25.198Z,-1.08
2022-12-18T17:11:53.973Z,-1.07
2022-12-18T17:14:24.250Z,-1.03
2022-12-18T17:17:19.879Z,-1.02
2022-12-18T17:19:42.610Z,-1.08
2022-12-18T17:22:10.678Z,-1.06
2022-12-18T17:24:38.655Z,-1.02
2022-12-18T17:27:07.541Z,-1.02
2022-12-18T17:29:35.886Z,-1.00
2022-12-18T17:32:05.875Z,-1.07
2022-12-18T17:34:33.873Z,-1.01
2022-12-18T17:37:01.937Z,-1.04
2022-12-18T17:39:30.798Z,-1.03
2022-12-18T17:41:59.929Z,-1.05
2022-12-18T17:44:27.970Z,-1.11
2022-12-18T17:46:56.413Z,-1.08
2022-12-18T17:49:25.971Z,-1.11
2022-12-18T17:51:54.140Z,-1.06
2022-12-18T17:54:22.141Z,-1.08
2022-12-18T17:56:50.213Z,-1.12
2022-12-18T17:59:18.314Z,-1.12
2022-12-18T18:01:46.894Z,-1.21
2022-12-18T18:04:15.388Z,-1.22
2022-12-18T18:06:44.809Z,-1.22
2022-12-18T18:09:16.110Z,-1.26
2022-12-18T18:12:02.574Z,-1.27
2022-12-18T18:14:30.893Z,-1.27
2022-12-18T18:16:59.212Z,-1.25
2022-12-18T18:19:29.848Z,-1.36
2022-12-18T18:22:01.525Z,-1.28
2022-12-18T18:24:31.206Z,-1.30
2022-12-18T18:27:00.091Z,-1.31
2022-12-18T18:29:31.261Z,-1.26
2022-12-18T18:31:59.884Z,-1.32
2022-12-18T18:34:29.701Z,-1.33
2022-12-18T18:36:59.429Z,-1.32
2022-12-18T18:39:28.247Z,-1.35
2022-12-18T18:41:57.299Z,-1.28
2022-12-18T18:44:26.341Z,-1.29
2022-12-18T18:46:56.082Z,-1.25
2022-12-18T18:49:27.126Z,-1.29
2022-12-18T18:51:55.865Z,-1.26
2022-12-18T18:54:25.487Z,-1.29
2022-12-18T18:59:42.702Z,-1.31
2022-12-18T19:02:13.247Z,-1.33
2022-12-18T19:04:46.320Z,-1.25
2022-12-18T19:07:19.743Z,-1.24
2022-12-18T19:10:05.037Z,-1.15
2022-12-18T19:12:51.556Z,-1.11
2022-12-18T19:15:19.826Z,-1.20
2022-12-18T19:17:47.955Z,-1.18
2022-12-18T19:20:16.777Z,-1.16
2022-12-18T19:22:47.949Z,-1.15
2022-12-18T19:25:38.217Z,-1.15
2022-12-18T19:28:13.507Z,-1.15
2022-12-18T19:30:54.529Z,-1.13
2022-12-18T19:33:43.037Z,-1.16
2022-12-18T19:36:13.769Z,-1.13
2022-12-18T19:38:42.733Z,-1.14
2022-12-18T19:41:15.546Z,-1.18
2022-12-18T19:43:44.012Z,-1.20
2022-12-18T19:46:15.348Z,-1.13
2022-12-18T19:48:44.616Z,-1.07
2022-12-18T19:51:15.794Z,-1.13
2022-12-18T19:53:44.105Z,-1.12
2022-12-18T19:56:15.653Z,-1.11
2022-12-18T19:58:44.806Z,-1.08
2022-12-18T20:01:16.752Z,-1.07
2022-12-18T20:03:46.616Z,-0.99
2022-12-18T20:06:26.152Z,-0.93
2022-12-18T20:09:00.316Z,-1.02
2022-12-18T20:11:31.052Z,-1.03
2022-12-18T20:13:59.495Z,-1.01
2022-12-18T20:16:27.813Z,-0.94
2022-12-18T20:18:56.046Z,-1.01
2022-12-18T20:21:24.155Z,-0.99
2022-12-18T20:23:52.409Z,-0.99
2022-12-18T20:26:20.742Z,-0.97
2022-12-18T20:28:50.226Z,-0.99
2022-12-18T20:31:18.272Z,-1.01
2022-12-18T20:33:48.755Z,-0.96
2022-12-18T20:36:23.409Z,-0.96
2022-12-18T20:38:54.688Z,-0.95
2022-12-18T20:41:25.483Z,-0.93
2022-12-18T20:43:55.183Z,-0.93
2022-12-18T20:46:23.523Z,-0.92
2022-12-18T20:48:51.644Z,-0.90
2022-12-18T20:51:21.967Z,-0.90
2022-12-18T20:53:50.108Z,-0.92
2022-12-18T20:56:21.508Z,-0.97
2022-12-18T20:58:53.635Z,-0.93
2022-12-18T21:01:25.552Z,-0.95
2022-12-18T21:03:54.079Z,-1.06
2022-12-18T21:06:23.852Z,-0.97
2022-12-18T21:08:52.063Z,-0.95
2022-12-18T21:12:01.811Z,-0.94
2022-12-18T21:14:30.976Z,-1.02
2022-12-18T21:17:02.093Z,-1.03
2022-12-18T21:19:31.289Z,-1.03
2022-12-18T21:22:00.022Z,-1.01
2022-12-18T21:24:28.203Z,-1.00
2022-12-18T21:27:01.853Z,-1.06
2022-12-18T21:29:30.146Z,-1.07
2022-12-18T21:31:58.376Z,-1.08
2022-12-18T21:34:29.691Z,-1.09
2022-12-18T21:36:59.532Z,-1.05
2022-12-18T21:39:29.001Z,-1.02
2022-12-18T21:42:15.717Z,-0.93
2022-12-18T21:44:45.185Z,-0.95
2022-12-18T21:47:21.441Z,-0.92
2022-12-18T21:49:52.805Z,-1.02
2022-12-18T21:52:21.674Z,-0.99
2022-12-18T21:55:08.032Z,-0.96
2022-12-18T21:57:38.003Z,-0.98
2022-12-18T22:00:07.478Z,-0.95
2022-12-18T22:02:35.904Z,-0.92
2022-12-18T22:05:06.228Z,-0.95
2022-12-18T22:07:35.089Z,-0.92
2022-12-18T22:10:03.243Z,-0.95
2022-12-18T22:12:44.396Z,-0.92
2022-12-18T22:15:21.127Z,-1.02
2022-12-18T22:17:50.367Z,-1.02
2022-12-18T22:20:20.568Z,-0.95
2022-12-18T22:22:51.617Z,-0.91
2022-12-18T22:25:19.701Z,-0.93
2022-12-18T22:28:08.078Z,-0.89
2022-12-18T22:30:35.131Z,-0.92
2022-12-18T22:33:04.094Z,-0.87
2022-12-18T22:35:33.512Z,-0.90
2022-12-18T22:38:02.688Z,-0.91
2022-12-18T22:40:31.004Z,-0.87
2022-12-18T22:43:01.445Z,-0.86
2022-12-18T22:45:29.522Z,-0.91
2022-12-18T22:47:57.802Z,-0.80
2022-12-18T22:50:26.002Z,-0.74
2022-12-18T22:52:55.372Z,-0.78
2022-12-18T22:55:23.639Z,-0.77
2022-12-18T22:57:51.664Z,-0.74
2022-12-18T23:00:23.990Z,-0.65
2022-12-18T23:02:59.818Z,-0.77
2022-12-18T23:05:30.317Z,-0.74
2022-12-18T23:08:00.397Z,-0.78
2022-12-18T23:10:29.202Z,-0.75
2022-12-18T23:12:57.318Z,-0.71
2022-12-18T23:15:28.113Z,-0.77
2022-12-18T23:17:58.795Z,-0.84
2022-12-18T23:20:28.304Z,-0.77
2022-12-18T23:22:56.409Z,-0.77
2022-12-18T23:25:26.020Z,-0.74
2022-12-18T23:27:54.246Z,-0.76
2022-12-18T23:30:22.297Z,-0.76
2022-12-18T23:32:50.315Z,-0.72
2022-12-18T23:35:18.978Z,-0.74
2022-12-18T23:38:04.188Z,-0.79
2022-12-18T23:40:33.730Z,-0.79
2022-12-18T23:43:01.854Z,-0.78
2022-12-18T23:45:30.029Z,-0.78
2022-12-18T23:47:58.094Z,-0.77
2022-12-18T23:50:30.003Z,-0.66
2022-12-18T23:53:03.775Z,-0.69
2022-12-18T23:55:40.562Z,-0.67
2022-12-18T23:58:10.091Z,-0.70
